Time;durP1;ratioP1;P1;durP2;ratioP2;P2;SDS_P1;SDS_P2;PMS_P1;PMS_P2;Temp;Humidity;BMP_temperature;BMP_pressure;BME280_temperature;BME280_humidity;BME280_pressure;Samples;Min_cycle;Max_cycle;Signal;HPM_P1;HPM_P2
2024/01/26 04:45:26;;;;;;;9.53;7.67;;;;;;;;;;5054985;28;20213;-67
2024/01/26 04:47:53;;;;;;;11.33;8.63;;;;;;;;;;5060950;28;20234;-66
2024/01/26 04:50:20;;;;;;;10.77;7.90;;;;;;;;;;5064201;28;20299;-67
2024/01/26 04:52:49;;;;;;;9.73;7.47;;;;;;;;;;5066984;28;20194;-66
2024/01/26 04:55:16;;;;;;;10.10;7.30;;;;;;;;;;5063463;28;20199;-66
2024/01/26 04:57:45;;;;;;;11.37;8.17;;;;;;;;;;5061951;28;20205;-66
2024/01/26 05:00:12;;;;;;;10.03;7.90;;;;;;;;;;5054662;28;20326;-66
2024/01/26 05:02:39;;;;;;;11.73;8.60;;;;;;;;;;5058958;28;20247;-65
2024/01/26 05:05:06;;;;;;;10.53;8.63;;;;;;;;;;5061399;28;20322;-66
2024/01/26 05:07:34;;;;;;;9.07;7.73;;;;;;;;;;5060074;28;20218;-67
2024/01/26 05:10:01;;;;;;;10.43;7.87;;;;;;;;;;5063246;28;20203;-66
2024/01/26 05:12:28;;;;;;;10.37;7.73;;;;;;;;;;5062114;28;20196;-66
2024/01/26 05:14:56;;;;;;;9.57;7.90;;;;;;;;;;5064887;28;20286;-66
2024/01/26 05:17:24;;;;;;;11.87;8.63;;;;;;;;;;5061890;28;20289;-67
2024/01/26 05:19:51;;;;;;;10.03;7.50;;;;;;;;;;5060748;28;20279;-66
2024/01/26 05:22:19;;;;;;;11.40;7.80;;;;;;;;;;5060752;28;20310;-66
2024/01/26 05:24:46;;;;;;;8.47;7.37;;;;;;;;;;5059059;28;20207;-67
2024/01/26 05:27:13;;;;;;;8.87;7.90;;;;;;;;;;5062867;28;20210;-66
2024/01/26 05:29:41;;;;;;;9.00;7.47;;;;;;;;;;5061946;28;20226;-67
2024/01/26 05:32:10;;;;;;;9.10;7.83;;;;;;;;;;5061943;28;20294;-68
2024/01/26 05:34:38;;;;;;;8.43;7.47;;;;;;;;;;5065691;28;20198;-70
2024/01/26 05:37:05;;;;;;;8.60;6.97;;;;;;;;;;5066162;28;20210;-69
2024/01/26 05:39:32;;;;;;;8.90;8.00;;;;;;;;;;5064700;28;20295;-67
2024/01/26 05:42:00;;;;;;;10.33;7.90;;;;;;;;;;5065438;28;20242;-67
2024/01/26 05:44:28;;;;;;;8.80;7.90;;;;;;;;;;5060493;28;20242;-68
2024/01/26 05:46:55;;;;;;;8.97;7.10;;;;;;;;;;5065015;28;20195;-67
2024/01/26 05:49:25;;;;;;;10.80;7.00;;;;;;;;;;5070210;28;20218;-67
2024/01/26 05:51:52;;;;;;;9.03;7.23;;;;;;;;;;5067108;28;20210;-62
2024/01/26 05:54:20;;;;;;;8.17;6.40;;;;;;;;;;5060249;28;20241;-61
2024/01/26 05:56:47;;;;;;;7.67;6.87;;;;;;;;;;5067152;28;20210;-62
2024/01/26 05:59:14;;;;;;;9.47;7.33;;;;;;;;;;5065227;28;20206;-61
2024/01/26 06:01:41;;;;;;;9.83;6.83;;;;;;;;;;5063415;28;20345;-62
2024/01/26 06:04:09;;;;;;;8.07;6.80;;;;;;;;;;5067315;28;20223;-62
2024/01/26 06:06:37;;;;;;;8.23;6.53;;;;;;;;;;5064425;28;20274;-63
2024/01/26 06:09:05;;;;;;;7.80;5.83;;;;;;;;;;5067420;28;20229;-61
2024/01/26 06:11:33;;;;;;;7.43;6.10;;;;;;;;;;5062216;28;20195;-62
2024/01/26 06:14:00;;;;;;;8.00;6.23;;;;;;;;;;5065973;28;20196;-61
2024/01/26 06:16:28;;;;;;;7.67;6.20;;;;;;;;;;5057205;28;20194;-62
2024/01/26 06:18:55;;;;;;;7.97;6.40;;;;;;;;;;5065325;28;20214;-62
2024/01/26 07:59:51;;;;;;;4.43;4.03;;;;;;;;;;5058738;28;20221;-67
2024/01/26 08:02:19;;;;;;;5.53;4.67;;;;;;;;;;5055553;28;20223;-66
2024/01/26 08:04:46;;;;;;;4.67;4.17;;;;;;;;;;5065163;28;20213;-66
2024/01/26 08:07:15;;;;;;;4.50;3.93;;;;;;;;;;5058961;28;20203;-66
2024/01/26 08:09:43;;;;;;;5.20;4.70;;;;;;;;;;5061130;28;20282;-65
2024/01/26 08:12:11;;;;;;;4.90;4.40;;;;;;;;;;5064641;28;20209;-61
2024/01/26 08:14:38;;;;;;;4.83;4.43;;;;;;;;;;5061572;28;20319;-62
2024/01/26 08:17:05;;;;;;;4.97;4.40;;;;;;;;;;5062500;28;20299;-61
2024/01/26 08:19:35;;;;;;;4.40;4.00;;;;;;;;;;5061940;28;20198;-62
2024/01/26 08:22:03;;;;;;;6.67;4.47;;;;;;;;;;5063306;28;20226;-62
2024/01/26 08:24:31;;;;;;;4.43;4.03;;;;;;;;;;5070250;28;20234;-61
2024/01/26 08:26:58;;;;;;;4.47;4.00;;;;;;;;;;5056944;28;20214;-62
2024/01/26 08:29:26;;;;;;;4.37;3.83;;;;;;;;;;5062972;28;20199;-61
2024/01/26 08:31:54;;;;;;;5.50;4.50;;;;;;;;;;5060031;28;20191;-62
2024/01/26 08:34:21;;;;;;;4.37;3.87;;;;;;;;;;5065868;28;20198;-62
2024/01/26 08:36:50;;;;;;;5.10;4.60;;;;;;;;;;5055650;28;20207;-61
2024/01/26 08:39:19;;;;;;;4.73;4.20;;;;;;;;;;5061117;28;20191;-61
2024/01/26 08:41:46;;;;;;;6.07;5.03;;;;;;;;;;5062009;28;20240;-61
2024/01/26 08:44:14;;;;;;;5.33;3.97;;;;;;;;;;5065168;28;20272;-61
2024/01/26 08:46:42;;;;;;;4.97;4.07;;;;;;;;;;5065486;28;20194;-61
2024/01/26 08:49:09;;;;;;;4.97;4.13;;;;;;;;;;5060518;28;20221;-61
2024/01/26 08:51:37;;;;;;;4.47;4.07;;;;;;;;;;5061471;28;20263;-61
2024/01/26 08:54:07;;;;;;;5.67;4.10;;;;;;;;;;5063078;28;20206;-62
2024/01/26 08:56:34;;;;;;;6.20;3.67;;;;;;;;;;5059551;28;20241;-62
2024/01/26 08:59:02;;;;;;;4.20;3.40;;;;;;;;;;5061870;28;20282;-61
2024/01/26 09:01:29;;;;;;;3.67;3.37;;;;;;;;;;5067948;28;20267;-62
2024/01/26 09:03:56;;;;;;;3.53;3.23;;;;;;;;;;5063317;28;20226;-62
2024/01/26 09:06:24;;;;;;;3.97;3.10;;;;;;;;;;5064303;28;20249;-62
2024/01/26 09:08:51;;;;;;;3.43;3.23;;;;;;;;;;5059880;28;20195;-62
2024/01/26 09:11:20;;;;;;;3.73;3.27;;;;;;;;;;5058684;28;20206;-62
2024/01/26 09:13:47;;;;;;;4.30;3.50;;;;;;;;;;5061654;28;20264;-61
2024/01/26 09:16:15;;;;;;;3.40;3.10;;;;;;;;;;5059129;28;20214;-61
2024/01/26 09:18:42;;;;;;;3.10;2.80;;;;;;;;;;5062415;28;20313;-63
2024/01/26 09:21:11;;;;;;;3.07;2.77;;;;;;;;;;5059983;28;20203;-62
2024/01/26 09:23:39;;;;;;;3.20;2.90;;;;;;;;;;5056085;28;20222;-66
2024/01/26 09:26:09;;;;;;;3.20;2.90;;;;;;;;;;5055845;28;20204;-65
2024/01/26 09:28:37;;;;;;;3.50;3.17;;;;;;;;;;5057589;28;20207;-66
2024/01/26 09:31:05;;;;;;;3.07;2.70;;;;;;;;;;5061292;28;20222;-65
2024/01/26 09:33:40;;;;;;;3.33;2.90;;;;;;;;;;5063927;28;20372;-66
2024/01/26 09:36:07;;;;;;;4.33;2.90;;;;;;;;;;5064070;28;20209;-66
2024/01/26 09:38:34;;;;;;;3.13;2.87;;;;;;;;;;5059989;28;20207;-66
2024/01/26 09:41:01;;;;;;;2.20;2.00;;;;;;;;;;5060312;28;20195;-66
2024/01/26 09:43:29;;;;;;;2.30;2.07;;;;;;;;;;5060400;28;20214;-66
2024/01/26 09:45:57;;;;;;;2.60;2.23;;;;;;;;;;5066457;28;20213;-66
2024/01/26 09:48:25;;;;;;;2.37;2.00;;;;;;;;;;5065850;28;20282;-66
2024/01/26 09:50:53;;;;;;;2.37;2.17;;;;;;;;;;5055107;28;20231;-65
2024/01/26 09:53:22;;;;;;;1.93;1.83;;;;;;;;;;5033829;28;20198;-66
2024/01/26 09:55:50;;;;;;;2.00;1.90;;;;;;;;;;5052718;28;20295;-66
2024/01/26 09:58:17;;;;;;;2.00;1.90;;;;;;;;;;5055491;28;20211;-66
2024/01/26 10:00:46;;;;;;;2.07;1.90;;;;;;;;;;5060908;28;20243;-66
2024/01/26 10:03:15;;;;;;;3.30;2.10;;;;;;;;;;5063098;28;20227;-66
2024/01/26 10:05:43;;;;;;;2.50;2.30;;;;;;;;;;5054520;28;20304;-66
2024/01/26 10:08:11;;;;;;;2.90;1.90;;;;;;;;;;5061558;28;20202;-65
2024/01/26 10:10:38;;;;;;;2.47;2.27;;;;;;;;;;5053633;28;20218;-66
2024/01/26 10:13:07;;;;;;;3.73;2.13;;;;;;;;;;5057413;28;20211;-65
2024/01/26 10:15:34;;;;;;;2.00;1.80;;;;;;;;;;5061344;28;20238;-66
2024/01/26 10:18:01;;;;;;;1.57;1.47;;;;;;;;;;5058992;28;20211;-66
2024/01/26 10:20:30;;;;;;;2.20;1.60;;;;;;;;;;5060968;28;20242;-66
2024/01/26 10:22:58;;;;;;;1.73;1.63;;;;;;;;;;5062255;28;20223;-66
2024/01/26 10:25:25;;;;;;;5.13;1.53;;;;;;;;;;5066008;28;20203;-65
2024/01/26 10:27:52;;;;;;;1.60;1.50;;;;;;;;;;5066511;28;20199;-66
2024/01/26 10:30:19;;;;;;;1.50;1.40;;;;;;;;;;5065126;28;20198;-65
2024/01/26 10:32:46;;;;;;;2.20;1.60;;;;;;;;;;5064812;28;20196;-66
2024/01/26 10:35:14;;;;;;;1.37;1.23;;;;;;;;;;5062980;28;20199;-66
2024/01/26 10:37:45;;;;;;;1.40;1.30;;;;;;;;;;5061266;28;20194;-65
2024/01/26 10:40:12;;;;;;;1.30;1.20;;;;;;;;;;5062772;28;20290;-66
2024/01/26 10:42:40;;;;;;;1.10;1.10;;;;;;;;;;5057350;28;20221;-66
2024/01/26 10:45:10;;;;;;;1.50;1.40;;;;;;;;;;5062368;28;20275;-66
2024/01/26 10:47:38;;;;;;;1.10;1.10;;;;;;;;;;5066896;28;20203;-65
2024/01/26 10:50:06;;;;;;;1.27;1.17;;;;;;;;;;5063699;28;20198;-65
2024/01/26 10:52:37;;;;;;;1.70;1.20;;;;;;;;;;5059193;28;20203;-66
2024/01/26 10:55:07;;;;;;;2.07;1.17;;;;;;;;;;5057156;28;20207;-66
2024/01/26 10:57:34;;;;;;;1.80;1.20;;;;;;;;;;5061059;28;20195;-66
2024/01/26 11:00:01;;;;;;;1.80;0.97;;;;;;;;;;5063812;28;20196;-65
2024/01/26 11:02:32;;;;;;;1.17;1.07;;;;;;;;;;5060729;28;20199;-66
2024/01/26 11:05:00;;;;;;;1.00;1.00;;;;;;;;;;5060084;28;20195;-66
2024/01/26 11:07:27;;;;;;;1.00;1.00;;;;;;;;;;5043416;28;20203;-66
2024/01/26 11:10:00;;;;;;;1.00;1.00;;;;;;;;;;5043770;28;20226;-66
2024/01/26 11:12:31;;;;;;;1.23;1.13;;;;;;;;;;5066404;28;20206;-66
2024/01/26 11:15:05;;;;;;;1.17;1.07;;;;;;;;;;5062188;28;20202;-66
2024/01/26 11:17:43;;;;;;;1.53;1.20;;;;;;;;;;5057563;28;20253;-66
2024/01/26 11:20:13;;;;;;;1.53;0.93;;;;;;;;;;5065643;28;20227;-66
2024/01/26 11:22:41;;;;;;;1.30;1.20;;;;;;;;;;5061238;28;20222;-66
2024/01/26 11:25:08;;;;;;;1.00;1.00;;;;;;;;;;5065853;28;20207;-66
2024/01/26 11:27:37;;;;;;;1.20;1.10;;;;;;;;;;5064942;28;20286;-66
2024/01/26 11:30:05;;;;;;;1.07;1.07;;;;;;;;;;5067440;28;20495;-66
2024/01/26 11:32:33;;;;;;;1.30;1.20;;;;;;;;;;5062404;28;20199;-66
2024/01/26 11:35:06;;;;;;;0.83;0.83;;;;;;;;;;5061140;28;20209;-66
2024/01/26 11:37:33;;;;;;;1.23;1.20;;;;;;;;;;5068342;28;20199;-66
2024/01/26 11:40:01;;;;;;;1.50;1.40;;;;;;;;;;5067205;28;20199;-66
2024/01/26 11:42:29;;;;;;;1.20;1.20;;;;;;;;;;5058736;28;20203;-66
2024/01/26 11:45:07;;;;;;;1.43;1.20;;;;;;;;;;5063647;28;20206;-66
2024/01/26 11:47:34;;;;;;;0.80;0.80;;;;;;;;;;5061210;28;20199;-66
2024/01/26 11:50:01;;;;;;;1.07;1.07;;;;;;;;;;5059480;28;20268;-68
2024/01/26 11:52:28;;;;;;;1.23;1.13;;;;;;;;;;5059860;28;20191;-66
2024/01/26 11:54:58;;;;;;;1.37;1.30;;;;;;;;;;5061926;28;20204;-65
2024/01/26 11:57:26;;;;;;;2.73;1.10;;;;;;;;;;5058623;28;20191;-65
2024/01/26 11:59:53;;;;;;;1.07;1.07;;;;;;;;;;5066220;28;20205;-65
2024/01/26 12:02:22;;;;;;;1.13;1.13;;;;;;;;;;5050576;28;20203;-65
2024/01/26 12:04:49;;;;;;;1.27;1.17;;;;;;;;;;5060617;28;20218;-65
2024/01/26 12:07:17;;;;;;;1.30;1.20;;;;;;;;;;5061701;28;20313;-65
2024/01/26 12:09:44;;;;;;;1.20;1.20;;;;;;;;;;5064877;28;20218;-65
2024/01/26 12:12:12;;;;;;;1.77;1.10;;;;;;;;;;5060519;28;20203;-66
2024/01/26 12:14:39;;;;;;;1.73;1.37;;;;;;;;;;5054744;28;20253;-65
2024/01/26 12:17:07;;;;;;;1.00;0.90;;;;;;;;;;5066041;28;20199;-65
2024/01/26 12:19:39;;;;;;;0.60;0.60;;;;;;;;;;5061552;28;20199;-65
2024/01/26 12:22:07;;;;;;;0.80;0.80;;;;;;;;;;5062567;28;20198;-65
2024/01/26 12:24:35;;;;;;;1.00;1.00;;;;;;;;;;5052893;28;20567;-65
2024/01/26 12:27:02;;;;;;;0.40;0.40;;;;;;;;;;5058169;28;20226;-65
2024/01/26 12:29:30;;;;;;;0.80;0.60;;;;;;;;;;5062221;28;20210;-65
2024/01/26 12:31:59;;;;;;;0.40;0.40;;;;;;;;;;5061796;28;20196;-65
2024/01/26 12:34:28;;;;;;;0.57;0.30;;;;;;;;;;5068229;28;20210;-64
2024/01/26 12:37:00;;;;;;;0.37;0.37;;;;;;;;;;5059987;28;20198;-66
2024/01/26 12:39:28;;;;;;;0.60;0.50;;;;;;;;;;5065682;28;20199;-66
2024/01/26 12:41:56;;;;;;;0.37;0.37;;;;;;;;;;5065942;28;20205;-66
2024/01/26 12:44:28;;;;;;;0.40;0.40;;;;;;;;;;5056653;28;20215;-65
2024/01/26 12:46:56;;;;;;;1.70;0.70;;;;;;;;;;5063189;28;20191;-65
2024/01/26 12:49:23;;;;;;;0.70;0.70;;;;;;;;;;5059690;28;20199;-65
2024/01/26 12:51:52;;;;;;;0.97;0.40;;;;;;;;;;5057295;28;20200;-65
2024/01/26 12:54:21;;;;;;;0.83;0.60;;;;;;;;;;5062559;28;20194;-65
2024/01/26 12:56:48;;;;;;;2.57;0.90;;;;;;;;;;5058237;28;20203;-65
2024/01/26 12:59:15;;;;;;;1.93;1.03;;;;;;;;;;5057221;28;20278;-65
2024/01/26 13:01:43;;;;;;;3.33;1.17;;;;;;;;;;5066325;28;20238;-66
2024/01/26 13:04:10;;;;;;;2.50;1.17;;;;;;;;;;5064886;28;20210;-65
2024/01/26 13:06:38;;;;;;;2.47;1.10;;;;;;;;;;5064479;28;20264;-65
2024/01/26 13:09:06;;;;;;;2.80;1.53;;;;;;;;;;5060983;28;20207;-66
2024/01/26 13:11:35;;;;;;;3.03;1.20;;;;;;;;;;5058451;28;20206;-66
2024/01/26 13:14:03;;;;;;;3.87;1.30;;;;;;;;;;5057613;28;20198;-65
2024/01/26 13:16:31;;;;;;;6.10;1.50;;;;;;;;;;5058507;28;20210;-65
2024/01/26 13:18:58;;;;;;;2.87;1.40;;;;;;;;;;5063018;28;20203;-65
2024/01/26 13:21:26;;;;;;;3.87;1.37;;;;;;;;;;5063171;28;20208;-65
2024/01/26 13:23:53;;;;;;;2.90;1.30;;;;;;;;;;5059982;28;20219;-65
2024/01/26 13:26:21;;;;;;;3.40;1.60;;;;;;;;;;5062505;28;20195;-65
2024/01/26 13:28:49;;;;;;;5.43;1.70;;;;;;;;;;5059587;28;20198;-65
2024/01/26 13:31:17;;;;;;;5.03;1.43;;;;;;;;;;5061080;28;20215;-65
2024/01/26 13:33:44;;;;;;;3.13;1.43;;;;;;;;;;5057399;28;20265;-65
2024/01/26 13:36:12;;;;;;;6.83;1.60;;;;;;;;;;5060581;28;20202;-64
2024/01/26 13:38:39;;;;;;;3.00;1.43;;;;;;;;;;5061206;28;20218;-65
2024/01/26 13:41:06;;;;;;;4.73;1.97;;;;;;;;;;5059649;28;20203;-65
2024/01/26 13:43:34;;;;;;;4.50;1.60;;;;;;;;;;5063501;28;20273;-65
2024/01/26 13:46:03;;;;;;;3.67;1.60;;;;;;;;;;5060189;28;20203;-65
2024/01/26 13:48:30;;;;;;;3.23;1.57;;;;;;;;;;5054776;28;20214;-66
2024/01/26 13:50:59;;;;;;;6.30;1.73;;;;;;;;;;5052486;28;20289;-65
2024/01/26 13:53:29;;;;;;;1.33;1.20;;;;;;;;;;5059051;28;20203;-65
2024/01/26 13:55:57;;;;;;;4.37;1.40;;;;;;;;;;5059768;28;20198;-65
2024/01/26 13:58:24;;;;;;;2.27;1.33;;;;;;;;;;5064411;28;20208;-65
2024/01/26 14:00:51;;;;;;;3.40;1.57;;;;;;;;;;5061234;28;20329;-66
2024/01/26 14:03:20;;;;;;;3.70;1.30;;;;;;;;;;5065455;28;20205;-62
2024/01/26 14:05:47;;;;;;;2.00;1.03;;;;;;;;;;5061176;28;20207;-61
2024/01/26 14:08:15;;;;;;;1.60;0.80;;;;;;;;;;5066579;28;20198;-62
2024/01/26 14:10:42;;;;;;;1.17;0.87;;;;;;;;;;5060935;28;20256;-61
2024/01/26 14:13:09;;;;;;;1.23;0.80;;;;;;;;;;5061829;28;20215;-61
2024/01/26 14:15:37;;;;;;;2.47;0.80;;;;;;;;;;5062704;28;20195;-62
2024/01/26 14:18:04;;;;;;;2.53;0.90;;;;;;;;;;5062182;28;20203;-62
2024/01/26 14:20:35;;;;;;;1.80;0.70;;;;;;;;;;5063655;28;20253;-62
2024/01/26 14:23:04;;;;;;;2.23;0.80;;;;;;;;;;5062517;28;20203;-62
2024/01/26 14:25:31;;;;;;;1.90;0.77;;;;;;;;;;5065541;28;20223;-62
2024/01/26 14:27:58;;;;;;;1.73;0.63;;;;;;;;;;5068780;28;20213;-61
2024/01/26 14:30:26;;;;;;;0.97;0.50;;;;;;;;;;5061568;28;20264;-61
2024/01/26 14:32:54;;;;;;;2.33;1.00;;;;;;;;;;5065623;28;20218;-61
2024/01/26 14:35:22;;;;;;;1.17;0.70;;;;;;;;;;5063640;28;20320;-61
2024/01/26 14:37:51;;;;;;;1.27;0.70;;;;;;;;;;5063731;28;20195;-62
2024/01/26 14:40:19;;;;;;;1.43;0.60;;;;;;;;;;5064092;28;20205;-61
2024/01/26 14:42:46;;;;;;;2.83;1.10;;;;;;;;;;5064198;28;20314;-61
2024/01/26 14:45:14;;;;;;;3.50;0.90;;;;;;;;;;5064137;28;20211;-63
2024/01/26 14:47:44;;;;;;;1.47;0.70;;;;;;;;;;5058906;28;20214;-62
2024/01/26 14:50:12;;;;;;;2.33;0.73;;;;;;;;;;5061240;28;20207;-61
2024/01/26 14:52:40;;;;;;;2.87;0.93;;;;;;;;;;5059388;28;20207;-62
2024/01/26 14:55:11;;;;;;;3.50;1.17;;;;;;;;;;5063444;28;20211;-63
2024/01/26 14:57:39;;;;;;;1.83;0.93;;;;;;;;;;5062743;28;20206;-62
2024/01/26 15:00:08;;;;;;;2.67;0.90;;;;;;;;;;5061018;28;20238;-62
2024/01/26 15:02:36;;;;;;;2.07;1.00;;;;;;;;;;5064016;28;20207;-63
2024/01/26 15:05:04;;;;;;;1.87;0.90;;;;;;;;;;5061213;28;20243;-63
2024/01/26 15:07:31;;;;;;;2.03;0.90;;;;;;;;;;5062477;28;20203;-63
2024/01/26 15:10:00;;;;;;;1.83;0.90;;;;;;;;;;5062682;28;20210;-63
2024/01/26 15:12:29;;;;;;;1.90;0.70;;;;;;;;;;5063696;28;20257;-67
2024/01/26 15:14:56;;;;;;;5.63;1.60;;;;;;;;;;5064237;28;20226;-67
2024/01/26 15:17:24;;;;;;;4.13;1.40;;;;;;;;;;5066701;28;20212;-67
2024/01/26 15:19:53;;;;;;;2.50;1.53;;;;;;;;;;5063711;28;20234;-67
2024/01/26 15:22:20;;;;;;;4.70;1.50;;;;;;;;;;5060385;28;20214;-68
2024/01/26 15:24:48;;;;;;;1.27;1.00;;;;;;;;;;5058479;28;20314;-68
2024/01/26 15:27:16;;;;;;;3.20;1.07;;;;;;;;;;5063618;28;20210;-67
2024/01/26 15:29:48;;;;;;;2.03;1.40;;;;;;;;;;5065396;28;20198;-68
2024/01/26 15:32:16;;;;;;;3.07;1.17;;;;;;;;;;5066215;28;20211;-67
2024/01/26 15:34:44;;;;;;;2.70;1.10;;;;;;;;;;5063481;28;20210;-69
2024/01/26 15:37:12;;;;;;;3.30;1.33;;;;;;;;;;5062504;28;20219;-68
2024/01/26 15:39:39;;;;;;;4.20;1.10;;;;;;;;;;5063810;28;20206;-68
2024/01/26 15:42:08;;;;;;;2.77;1.23;;;;;;;;;;5064661;28;20202;-67
2024/01/26 15:44:36;;;;;;;4.13;1.43;;;;;;;;;;5066449;28;20301;-67
2024/01/26 15:47:07;;;;;;;2.97;1.17;;;;;;;;;;5063581;28;20204;-68
2024/01/26 15:49:36;;;;;;;2.87;1.30;;;;;;;;;;5059100;28;20200;-68
2024/01/26 15:52:04;;;;;;;3.63;1.30;;;;;;;;;;5059014;28;20211;-67
2024/01/26 15:54:32;;;;;;;2.00;1.43;;;;;;;;;;5057241;28;20258;-67
2024/01/26 15:57:01;;;;;;;3.23;1.07;;;;;;;;;;5062441;28;20190;-68
2024/01/26 15:59:29;;;;;;;3.67;1.70;;;;;;;;;;5054062;28;20283;-68
2024/01/26 16:01:56;;;;;;;3.60;1.60;;;;;;;;;;5064159;28;20261;-67
2024/01/26 16:04:25;;;;;;;2.50;1.20;;;;;;;;;;5056596;28;20296;-67
2024/01/26 16:06:53;;;;;;;4.27;1.60;;;;;;;;;;5060775;28;20194;-68
2024/01/26 16:09:21;;;;;;;6.13;1.40;;;;;;;;;;5058794;28;20202;-67
2024/01/26 16:11:48;;;;;;;4.23;1.40;;;;;;;;;;5061230;28;20206;-67
2024/01/26 16:14:16;;;;;;;5.00;1.83;;;;;;;;;;5065448;28;20206;-68
2024/01/26 16:16:43;;;;;;;3.53;1.50;;;;;;;;;;5059276;28;20302;-69
2024/01/26 16:19:10;;;;;;;4.03;1.60;;;;;;;;;;5054199;28;20211;-68
2024/01/26 16:21:39;;;;;;;4.43;2.00;;;;;;;;;;5058061;28;20328;-63
2024/01/26 16:24:06;;;;;;;5.43;2.13;;;;;;;;;;5066143;28;20200;-63
2024/01/26 16:26:34;;;;;;;3.90;1.70;;;;;;;;;;5063885;28;20210;-64
2024/01/26 16:29:01;;;;;;;4.73;1.60;;;;;;;;;;5063313;28;20214;-63
2024/01/26 16:31:28;;;;;;;4.67;1.70;;;;;;;;;;5054803;28;20199;-63
2024/01/26 16:33:56;;;;;;;4.17;1.50;;;;;;;;;;5057954;28;20222;-63
2024/01/26 16:36:24;;;;;;;2.27;1.10;;;;;;;;;;5063198;28;20283;-63
2024/01/26 16:38:52;;;;;;;3.67;1.47;;;;;;;;;;5057559;28;20227;-63
2024/01/26 16:41:19;;;;;;;4.07;1.10;;;;;;;;;;5063566;28;20225;-63
2024/01/26 16:43:48;;;;;;;2.73;1.23;;;;;;;;;;5067706;28;20198;-63
2024/01/26 16:46:15;;;;;;;2.83;1.00;;;;;;;;;;5057201;28;20237;-63
2024/01/26 16:48:42;;;;;;;2.90;1.40;;;;;;;;;;5056174;28;20235;-64
2024/01/26 16:51:12;;;;;;;4.73;1.60;;;;;;;;;;5059189;28;20209;-63
2024/01/26 16:53:39;;;;;;;3.80;1.73;;;;;;;;;;5061828;28;20276;-64
2024/01/26 16:56:08;;;;;;;5.40;2.73;;;;;;;;;;5063071;28;20222;-63
2024/01/26 16:58:36;;;;;;;5.50;2.60;;;;;;;;;;5066390;28;20244;-64
2024/01/26 17:01:03;;;;;;;4.67;2.73;;;;;;;;;;5058993;28;20467;-64
2024/01/26 17:03:30;;;;;;;5.13;2.10;;;;;;;;;;5059739;28;20210;-64
2024/01/26 17:05:58;;;;;;;4.47;1.37;;;;;;;;;;5060424;28;20221;-64
2024/01/26 17:08:28;;;;;;;4.30;1.50;;;;;;;;;;5058297;28;20203;-63
2024/01/26 17:10:55;;;;;;;3.57;1.10;;;;;;;;;;5059003;28;20290;-63
2024/01/26 17:13:26;;;;;;;3.07;1.07;;;;;;;;;;5055154;28;20195;-64
2024/01/26 17:15:54;;;;;;;4.57;1.50;;;;;;;;;;5057510;28;20199;-63
2024/01/26 17:18:21;;;;;;;6.43;1.60;;;;;;;;;;5062662;28;20206;-63
2024/01/26 17:20:48;;;;;;;4.03;1.30;;;;;;;;;;5064501;28;20233;-63
2024/01/26 17:23:16;;;;;;;2.43;1.20;;;;;;;;;;5056740;28;20530;-63
2024/01/26 17:25:43;;;;;;;4.87;1.37;;;;;;;;;;5058884;28;20303;-63
2024/01/26 17:28:10;;;;;;;7.07;2.30;;;;;;;;;;5064679;28;20213;-63
2024/01/26 17:30:38;;;;;;;4.53;1.67;;;;;;;;;;5064069;28;20204;-63
2024/01/26 17:33:06;;;;;;;4.23;1.60;;;;;;;;;;5062476;28;20294;-64
2024/01/26 17:35:33;;;;;;;6.40;1.90;;;;;;;;;;5063001;28;20252;-63
2024/01/26 17:38:00;;;;;;;4.40;2.30;;;;;;;;;;5061637;28;20206;-63
2024/01/26 17:40:27;;;;;;;4.90;1.70;;;;;;;;;;5056683;28;20265;-63
2024/01/26 17:42:54;;;;;;;4.93;2.53;;;;;;;;;;5058709;28;20218;-63
2024/01/26 17:45:22;;;;;;;6.90;2.30;;;;;;;;;;5057667;28;20259;-63
2024/01/26 17:47:52;;;;;;;6.93;1.50;;;;;;;;;;5059888;28;20229;-63
2024/01/26 17:50:19;;;;;;;3.93;1.37;;;;;;;;;;5058991;28;20210;-64
2024/01/26 17:52:46;;;;;;;5.33;1.53;;;;;;;;;;5058226;28;20203;-63
2024/01/26 17:55:13;;;;;;;7.20;1.63;;;;;;;;;;5055079;28;20199;-63
2024/01/26 17:57:40;;;;;;;5.67;1.90;;;;;;;;;;5062353;28;20202;-62
2024/01/26 18:00:09;;;;;;;5.23;1.37;;;;;;;;;;5059867;28;20230;-63
2024/01/26 18:02:37;;;;;;;4.07;1.50;;;;;;;;;;5061797;28;20231;-63
2024/01/26 18:05:05;;;;;;;5.23;1.60;;;;;;;;;;5060427;28;20302;-63
2024/01/26 18:07:33;;;;;;;5.70;1.80;;;;;;;;;;5061970;28;20348;-61
2024/01/26 18:10:00;;;;;;;7.00;2.10;;;;;;;;;;5057791;28;20207;-61
2024/01/26 18:12:27;;;;;;;4.47;1.80;;;;;;;;;;5055741;28;20286;-61
2024/01/26 18:14:54;;;;;;;4.60;1.97;;;;;;;;;;5062889;28;20203;-61
2024/01/26 18:17:22;;;;;;;5.20;1.77;;;;;;;;;;5059528;28;20290;-61
2024/01/26 18:19:49;;;;;;;5.87;1.70;;;;;;;;;;5056547;28;20203;-61
2024/01/26 18:22:17;;;;;;;4.23;1.70;;;;;;;;;;5053473;28;20207;-61
2024/01/26 18:24:44;;;;;;;7.67;2.60;;;;;;;;;;5051760;28;20211;-61
2024/01/26 18:27:11;;;;;;;5.27;2.10;;;;;;;;;;5059365;28;20484;-60
2024/01/26 18:29:39;;;;;;;8.63;1.83;;;;;;;;;;5053029;28;20204;-61
2024/01/26 18:32:06;;;;;;;6.90;1.90;;;;;;;;;;5055675;28;20318;-62
2024/01/26 18:34:33;;;;;;;9.07;2.00;;;;;;;;;;5060305;28;20196;-61
2024/01/26 18:37:00;;;;;;;5.67;1.90;;;;;;;;;;5050498;28;20196;-62
2024/01/26 18:39:29;;;;;;;5.73;1.77;;;;;;;;;;5060446;28;20297;-61
2024/01/26 18:41:56;;;;;;;5.17;1.93;;;;;;;;;;5059317;28;20218;-61
2024/01/26 18:44:23;;;;;;;7.37;2.40;;;;;;;;;;5060132;28;20203;-61
2024/01/26 18:46:50;;;;;;;4.93;2.10;;;;;;;;;;5061810;28;20806;-61
2024/01/26 18:49:18;;;;;;;9.20;2.70;;;;;;;;;;5061257;28;20203;-61
2024/01/26 18:51:45;;;;;;;4.73;2.00;;;;;;;;;;5060800;28;20301;-61
2024/01/26 18:54:12;;;;;;;6.17;1.97;;;;;;;;;;5064466;28;20297;-61
2024/01/26 18:56:41;;;;;;;4.30;1.83;;;;;;;;;;5056036;28;20298;-62
2024/01/26 18:59:09;;;;;;;4.97;1.73;;;;;;;;;;5060848;28;20203;-61
2024/01/26 19:01:36;;;;;;;6.03;2.07;;;;;;;;;;5067675;28;20234;-61
2024/01/26 19:04:03;;;;;;;5.00;1.97;;;;;;;;;;5061335;28;20290;-61
2024/01/26 19:06:30;;;;;;;6.00;2.00;;;;;;;;;;5061134;28;20227;-62
2024/01/26 19:08:57;;;;;;;4.47;1.67;;;;;;;;;;5061826;28;20199;-61
2024/01/26 19:11:25;;;;;;;5.70;1.80;;;;;;;;;;5064799;28;20199;-60
2024/01/26 19:13:54;;;;;;;4.20;1.63;;;;;;;;;;5065745;28;20207;-61
2024/01/26 19:16:21;;;;;;;5.93;2.13;;;;;;;;;;5055471;28;20282;-61
2024/01/26 19:18:49;;;;;;;6.07;1.90;;;;;;;;;;5063503;28;20278;-61
2024/01/26 19:21:17;;;;;;;5.17;1.97;;;;;;;;;;5063907;28;20200;-61
2024/01/26 19:23:44;;;;;;;4.87;2.10;;;;;;;;;;5060935;28;20285;-62
2024/01/26 19:26:11;;;;;;;5.80;2.53;;;;;;;;;;5057576;28;20216;-61
2024/01/26 19:28:38;;;;;;;8.03;2.67;;;;;;;;;;5059678;28;20195;-61
2024/01/26 19:31:07;;;;;;;5.63;1.73;;;;;;;;;;5069687;28;20240;-63
2024/01/26 19:33:34;;;;;;;6.00;2.20;;;;;;;;;;5071094;28;20234;-62
2024/01/26 19:36:02;;;;;;;5.73;2.07;;;;;;;;;;5062164;28;20285;-62
2024/01/26 19:38:29;;;;;;;4.23;1.77;;;;;;;;;;5068566;28;20282;-61
2024/01/26 19:40:56;;;;;;;9.87;1.90;;;;;;;;;;5065889;28;20291;-61
2024/01/26 19:43:23;;;;;;;5.70;1.73;;;;;;;;;;5062828;28;20267;-62
2024/01/26 19:45:50;;;;;;;5.73;1.70;;;;;;;;;;5064620;28;20222;-61
2024/01/26 19:48:19;;;;;;;2.97;1.53;;;;;;;;;;5058623;28;20203;-62
2024/01/26 19:50:46;;;;;;;5.90;1.90;;;;;;;;;;5061342;28;20199;-62
2024/01/26 19:53:13;;;;;;;12.83;5.80;;;;;;;;;;5056274;28;20230;-68
2024/01/26 19:55:40;;;;;;;11.30;4.47;;;;;;;;;;5061244;28;20213;-66
2024/01/26 19:58:07;;;;;;;9.03;3.13;;;;;;;;;;5057863;28;20259;-65
2024/01/26 20:00:35;;;;;;;7.77;2.60;;;;;;;;;;5059004;28;20234;-65
2024/01/26 20:03:02;;;;;;;5.23;1.97;;;;;;;;;;5062320;28;20199;-65
2024/01/26 20:05:31;;;;;;;6.70;2.07;;;;;;;;;;5058164;28;20230;-66
2024/01/26 20:07:58;;;;;;;12.33;6.93;;;;;;;;;;5059747;28;20195;-65
2024/01/26 20:10:25;;;;;;;21.73;12.80;;;;;;;;;;5065148;28;20286;-66
2024/01/26 20:12:52;;;;;;;20.50;11.80;;;;;;;;;;5063478;28;20266;-66
2024/01/26 20:15:19;;;;;;;23.63;13.03;;;;;;;;;;5062871;28;20203;-66
2024/01/26 20:17:46;;;;;;;15.83;10.87;;;;;;;;;;5060087;28;20203;-67
2024/01/26 20:20:15;;;;;;;15.50;8.40;;;;;;;;;;5059482;28;20298;-66
2024/01/26 20:22:43;;;;;;;13.23;5.90;;;;;;;;;;5066165;28;20195;-66
2024/01/26 20:25:11;;;;;;;9.80;4.57;;;;;;;;;;5056727;28;20214;-65
2024/01/26 20:27:38;;;;;;;22.07;8.80;;;;;;;;;;5061827;28;20207;-66
2024/01/26 20:30:07;;;;;;;8.57;3.07;;;;;;;;;;5064167;28;20203;-66
2024/01/26 20:32:34;;;;;;;13.20;5.20;;;;;;;;;;5064106;28;20225;-67
2024/01/26 20:35:02;;;;;;;15.73;6.90;;;;;;;;;;5061677;28;20262;-67
2024/01/26 20:37:29;;;;;;;9.93;2.87;;;;;;;;;;5061290;28;20282;-67
2024/01/26 20:39:58;;;;;;;11.87;4.17;;;;;;;;;;5060584;28;20207;-67
2024/01/26 20:42:26;;;;;;;7.40;2.90;;;;;;;;;;5062616;28;20242;-67
2024/01/26 20:44:53;;;;;;;7.13;3.43;;;;;;;;;;5059650;28;20203;-67
2024/01/26 20:47:21;;;;;;;10.37;4.20;;;;;;;;;;5062374;28;20251;-66
2024/01/26 20:49:49;;;;;;;14.10;6.50;;;;;;;;;;5058735;28;20203;-67
2024/01/26 20:52:16;;;;;;;16.83;7.37;;;;;;;;;;5060983;28;20346;-67
2024/01/26 20:54:43;;;;;;;13.83;5.27;;;;;;;;;;5063012;28;20206;-67
2024/01/26 20:57:11;;;;;;;10.80;4.97;;;;;;;;;;5062580;28;20191;-67
2024/01/26 20:59:38;;;;;;;7.80;3.10;;;;;;;;;;5062313;28;20302;-67
2024/01/26 21:02:06;;;;;;;8.83;3.37;;;;;;;;;;5059545;28;20235;-62
2024/01/26 21:04:33;;;;;;;6.53;3.70;;;;;;;;;;5065022;28;20262;-62
2024/01/26 21:07:00;;;;;;;6.60;3.47;;;;;;;;;;5062818;28;20249;-64